Time;durP1;ratioP1;P1;durP2;ratioP2;P2;SDS_P1;SDS_P2;PMS_P1;PMS_P2;Temp;Humidity;BMP_temperature;BMP_pressure;BME280_temperature;BME280_humidity;BME280_pressure;Samples;Min_cycle;Max_cycle;Signal;HPM_P1;HPM_P2
2022/11/29 00:01:32;;;;;;;12.28;9.23;;;7.10;99.90;;;;;;1940332;72;22152;-88
2022/11/29 00:04:24;;;;;;;12.15;9.83;;;7.10;99.90;;;;;;1895439;74;21099;-88
2022/11/29 00:07:15;;;;;;;12.45;9.83;;;7.10;99.90;;;;;;1882165;75;21098;-88
2022/11/29 00:10:10;;;;;;;13.62;10.65;;;7.20;99.90;;;;;;1891552;75;21104;-87
2022/11/29 00:13:01;;;;;;;13.85;10.08;;;7.20;99.90;;;;;;1888226;75;21068;-88
2022/11/29 00:15:53;;;;;;;12.93;10.23;;;7.20;99.90;;;;;;1871496;75;21118;-88
2022/11/29 00:18:46;;;;;;;12.82;9.45;;;7.20;99.90;;;;;;1878782;75;21167;-88
2022/11/29 00:24:21;;;;;;;13.60;10.13;;;7.20;99.90;;;;;;1942031;72;22253;-89
2022/11/29 00:27:12;;;;;;;12.43;10.38;;;7.20;99.90;;;;;;1885205;75;21161;-88
2022/11/29 00:30:05;;;;;;;12.25;9.85;;;7.20;99.90;;;;;;1887064;75;21102;-88
2022/11/29 00:32:57;;;;;;;12.60;9.60;;;7.20;99.90;;;;;;1889058;75;21140;-88
2022/11/29 00:35:49;;;;;;;13.72;10.15;;;7.20;99.90;;;;;;1883369;75;21184;-88
2022/11/29 00:38:40;;;;;;;13.05;9.78;;;7.10;99.90;;;;;;1898296;75;21196;-88
2022/11/29 00:41:33;;;;;;;12.40;9.43;;;7.20;99.90;;;;;;1880927;75;21090;-88
2022/11/29 00:44:24;;;;;;;12.63;9.53;;;7.20;99.90;;;;;;1878437;75;21099;-88
2022/11/29 00:49:56;;;;;;;13.62;10.15;;;7.20;99.90;;;;;;1927206;72;22287;-89
2022/11/29 00:55:33;;;;;;;12.68;9.65;;;7.20;99.90;;;;;;1955008;72;22256;-89
2022/11/29 01:01:15;;;;;;;13.65;9.43;;;7.20;99.90;;;;;;1942651;72;22295;-88
2022/11/29 01:04:07;;;;;;;14.63;10.40;;;7.20;99.90;;;;;;1919713;73;21161;-88
2022/11/29 01:06:59;;;;;;;13.05;9.48;;;7.20;99.90;;;;;;1921928;73;21098;-87
2022/11/29 01:09:50;;;;;;;11.20;9.98;;;7.20;99.90;;;;;;1931438;73;21128;-87
2022/11/29 01:12:42;;;;;;;12.60;9.40;;;7.20;99.90;;;;;;1922307;73;21055;-88
2022/11/29 01:21:02;;;;;;;13.08;10.10;;;7.20;99.90;;;;;;1928538;72;22272;-88
2022/11/29 01:23:54;;;;;;;12.98;9.35;;;7.20;99.90;;;;;;1874839;75;21079;-89
2022/11/29 01:26:45;;;;;;;14.87;9.98;;;7.10;99.90;;;;;;1885781;75;21142;-87
2022/11/29 01:29:37;;;;;;;18.12;10.00;;;7.10;99.90;;;;;;1875331;75;21180;-87
2022/11/29 01:32:29;;;;;;;15.80;10.78;;;7.00;99.90;;;;;;1894031;75;21127;-87
2022/11/29 01:35:20;;;;;;;14.10;10.13;;;7.00;99.90;;;;;;1872958;75;21258;-87
2022/11/29 01:38:11;;;;;;;11.57;9.40;;;6.90;99.90;;;;;;1891486;75;21302;-87
2022/11/29 01:41:05;;;;;;;13.83;10.40;;;6.90;99.90;;;;;;1873376;75;21098;-90
2022/11/29 01:44:00;;;;;;;16.50;9.75;;;6.90;99.90;;;;;;1873546;75;21091;-88
2022/11/29 01:46:51;;;;;;;12.47;9.83;;;6.90;99.90;;;;;;1877083;75;21118;-88
2022/11/29 01:49:46;;;;;;;12.15;9.63;;;6.90;99.90;;;;;;1896166;75;21161;-89
2022/11/29 01:52:39;;;;;;;11.83;9.73;;;6.80;99.90;;;;;;1893902;75;21585;-88
2022/11/29 01:55:31;;;;;;;13.53;9.48;;;6.70;99.90;;;;;;1873112;75;21150;-88
2022/11/29 01:58:23;;;;;;;10.58;9.03;;;6.80;99.90;;;;;;1872960;75;21168;-89
2022/11/29 02:01:18;;;;;;;16.55;9.43;;;6.80;99.90;;;;;;1880679;75;21130;-88
2022/11/29 02:04:09;;;;;;;11.35;9.05;;;6.80;99.90;;;;;;1877027;75;21188;-88
2022/11/29 02:07:00;;;;;;;12.43;9.45;;;6.80;99.90;;;;;;1884823;75;21154;-88
2022/11/29 02:10:00;;;;;;;11.75;8.83;;;6.80;99.90;;;;;;1884852;75;21095;-89
2022/11/29 02:12:58;;;;;;;13.55;9.28;;;6.80;99.90;;;;;;1900196;75;21107;-88
2022/11/29 02:19:02;;;;;;;11.20;9.08;;;6.80;99.90;;;;;;2065747;68;22196;-88
2022/11/29 02:24:58;;;;;;;10.48;8.25;;;6.80;99.90;;;;;;1936955;72;22175;-88
2022/11/29 02:31:41;;;;;;;14.03;9.80;;;6.80;99.90;;;;;;1938121;72;22205;-88
2022/11/29 02:34:51;;;;;;;12.88;9.50;;;6.70;99.90;;;;;;1872547;75;21106;-89
2022/11/29 02:38:25;;;;;;;14.83;9.50;;;6.60;99.90;;;;;;1889157;75;21654;-88
2022/11/29 02:41:25;;;;;;;13.65;9.95;;;6.60;99.90;;;;;;1892666;75;21044;-88
2022/11/29 02:44:25;;;;;;;12.25;9.35;;;6.60;99.90;;;;;;1880528;75;21047;-89
2022/11/29 02:50:12;;;;;;;14.95;11.38;;;6.60;99.90;;;;;;1951810;72;22189;-88
2022/11/29 02:53:08;;;;;;;14.05;10.53;;;6.60;99.90;;;;;;1892448;75;21176;-89
2022/11/29 02:56:06;;;;;;;12.68;10.85;;;6.60;99.90;;;;;;1896819;75;21097;-88
2022/11/29 02:59:01;;;;;;;12.53;10.43;;;6.60;99.90;;;;;;1887017;75;21137;-88
2022/11/29 03:04:38;;;;;;;13.90;10.95;;;6.70;99.90;;;;;;1927405;72;22252;-88
2022/11/29 03:07:33;;;;;;;13.48;10.80;;;6.70;99.90;;;;;;1906982;75;21145;-88
2022/11/29 03:10:31;;;;;;;13.58;11.50;;;6.80;99.90;;;;;;1912988;73;21163;-87
2022/11/29 03:13:26;;;;;;;13.30;10.93;;;6.80;99.90;;;;;;1917414;73;21174;-87
2022/11/29 03:16:23;;;;;;;14.38;11.18;;;6.80;99.90;;;;;;1911122;74;21637;-87
2022/11/29 03:19:33;;;;;;;14.50;11.10;;;6.80;99.90;;;;;;1909263;74;21086;-88
2022/11/29 03:22:31;;;;;;;14.23;11.43;;;6.80;99.90;;;;;;1911233;73;21557;-89
2022/11/29 03:25:26;;;;;;;13.72;10.98;;;6.80;99.90;;;;;;1871516;76;21163;-89
2022/11/29 03:28:21;;;;;;;14.28;10.15;;;6.80;99.90;;;;;;1916800;73;21208;-88
2022/11/29 03:31:16;;;;;;;12.35;9.85;;;6.80;99.90;;;;;;1924101;73;21155;-87
2022/11/29 03:37:06;;;;;;;11.95;9.63;;;6.90;99.90;;;;;;1974484;72;20186;-89
2022/11/29 03:40:03;;;;;;;11.90;8.88;;;6.90;99.90;;;;;;1922300;73;21220;-90
2022/11/29 03:45:37;;;;;;;3.72;2.83;;;7.00;99.90;;;;;;1946476;72;22298;-88
2022/11/29 03:48:33;;;;;;;6.85;5.17;;;7.00;99.90;;;;;;1892888;75;21150;-88
2022/11/29 03:51:28;;;;;;;9.90;7.45;;;7.20;99.90;;;;;;1895057;75;21165;-88
2022/11/29 03:54:23;;;;;;;8.60;6.83;;;7.10;99.90;;;;;;1879931;75;21469;-87
2022/11/29 03:57:18;;;;;;;9.90;8.33;;;7.10;99.90;;;;;;1885512;75;21098;-88
2022/11/29 04:00:13;;;;;;;9.50;7.25;;;7.10;99.90;;;;;;1881055;75;21127;-88
2022/11/29 04:03:28;;;;;;;2.98;1.92;;;7.00;99.90;;;;;;1872740;75;21098;-87
2022/11/29 04:06:33;;;;;;;9.80;8.30;;;7.20;99.90;;;;;;1879101;75;21092;-87
2022/11/29 04:09:49;;;;;;;7.20;6.00;;;7.10;99.90;;;;;;1903975;75;21101;-88
2022/11/29 04:15:48;;;;;;;0.98;0.75;;;7.10;99.90;;;;;;1952439;72;22208;-88
2022/11/29 04:19:11;;;;;;;1.95;1.65;;;7.30;99.90;;;;;;1915778;74;21271;-88
2022/11/29 04:25:32;;;;;;;8.88;6.85;;;7.30;99.90;;;;;;1948498;72;22690;-86
2022/11/29 04:32:22;;;;;;;3.80;2.90;;;7.30;99.90;;;;;;1945186;72;22275;-88
2022/11/29 04:38:48;;;;;;;5.03;3.70;;;7.40;99.90;;;;;;1936060;72;22118;-87
2022/11/29 04:42:10;;;;;;;2.97;0.80;;;7.30;99.90;;;;;;1893532;75;21180;-87
2022/11/29 04:45:57;;;;;;;5.47;4.22;;;7.20;99.90;;;;;;1903637;75;21348;-89
2022/11/29 04:51:45;;;;;;;2.02;0.80;;;7.20;99.90;;;;;;1948824;72;22186;-88
2022/11/29 04:54:40;;;;;;;0.70;0.45;;;7.30;99.90;;;;;;1897762;75;21511;-87
2022/11/29 04:57:38;;;;;;;1.40;1.12;;;7.30;99.90;;;;;;1872461;75;21229;-88
2022/11/29 05:00:32;;;;;;;1.05;0.60;;;7.30;99.90;;;;;;1872678;75;21127;-87
2022/11/29 05:03:28;;;;;;;0.50;0.30;;;7.30;99.90;;;;;;1878807;75;21106;-88
2022/11/29 05:06:25;;;;;;;0.68;0.55;;;7.20;99.90;;;;;;1872228;75;21112;-88
2022/11/29 05:09:19;;;;;;;;;;;7.20;99.90;;;;;;1876664;75;21589;-86
2022/11/29 05:12:14;;;;;;;0.88;0.53;;;7.20;99.90;;;;;;1872340;75;20205;-86
2022/11/29 05:15:26;;;;;;;1.20;0.50;;;7.10;99.90;;;;;;1873303;75;21151;-88
2022/11/29 05:18:21;;;;;;;0.55;0.40;;;7.10;99.90;;;;;;1872673;75;21139;-88
2022/11/29 05:23:55;;;;;;;0.80;0.60;;;6.90;99.90;;;;;;1946512;72;22264;-88
2022/11/29 05:26:50;;;;;;;0.75;0.45;;;6.90;99.90;;;;;;1892272;75;21106;-87
2022/11/29 05:29:44;;;;;;;1.22;0.60;;;6.80;99.90;;;;;;1904740;75;21141;-88
2022/11/29 05:39:03;;;;;;;0.40;0.40;;;6.70;99.90;;;;;;1953317;72;22219;-87
2022/11/29 05:42:04;;;;;;;0.75;0.40;;;6.60;99.90;;;;;;1922250;74;21107;-87
2022/11/29 05:44:59;;;;;;;0.78;0.45;;;6.50;99.90;;;;;;1912391;73;21127;-88
2022/11/29 05:47:56;;;;;;;0.42;0.20;;;6.50;99.90;;;;;;1902177;73;21114;-87
2022/11/29 05:53:30;;;;;;;0.10;0.10;;;6.50;99.90;;;;;;1924853;72;22274;-87
2022/11/29 05:59:11;;;;;;;0.53;0.53;;;6.50;99.90;;;;;;1949923;72;22189;-89
2022/11/29 06:02:07;;;;;;;0.30;0.28;;;6.40;99.90;;;;;;1931478;73;21162;-89
2022/11/29 06:05:08;;;;;;;0.50;0.30;;;6.40;99.90;;;;;;1928488;73;21155;-87
2022/11/29 06:08:05;;;;;;;0.78;0.30;;;6.30;99.90;;;;;;1932011;73;21591;-87
2022/11/29 06:13:53;;;;;;;0.20;0.20;;;6.30;99.90;;;;;;1948849;72;22204;-87
2022/11/29 06:17:11;;;;;;;0.20;0.20;;;6.30;99.90;;;;;;1934837;73;21636;-87
2022/11/29 06:20:49;;;;;;;0.57;0.20;;;6.30;99.90;;;;;;1922040;73;21101;-87
2022/11/29 06:24:07;;;;;;;;;;;6.20;99.90;;;;;;1926017;73;21427;-87
2022/11/29 06:27:15;;;;;;;0.10;0.10;;;6.20;99.90;;;;;;1913528;73;20213;-86
2022/11/29 06:30:13;;;;;;;0.20;0.10;;;6.20;99.90;;;;;;1916889;74;21073;-87
2022/11/29 06:38:31;;;;;;;0.20;0.20;;;6.30;99.90;;;;;;1946844;72;22181;-88
2022/11/29 06:44:12;;;;;;;1.05;0.03;;;6.40;99.90;;;;;;1973562;72;22166;-88
2022/11/29 06:47:08;;;;;;;0.10;0.10;;;6.40;99.90;;;;;;1952133;73;21169;-87
2022/11/29 06:50:03;;;;;;;0.10;0.10;;;6.40;99.90;;;;;;1950372;72;21165;-88
2022/11/29 06:55:38;;;;;;;0.20;0.10;;;6.40;99.90;;;;;;1950243;72;22284;-88
2022/11/29 07:07:25;;;;;;;0.20;0.20;;;6.40;99.90;;;;;;1950137;72;22218;-89
2022/11/29 07:10:19;;;;;;;0.10;0.10;;;6.40;99.90;;;;;;1904799;74;21097;-89
2022/11/29 07:13:13;;;;;;;0.10;0.10;;;6.40;99.90;;;;;;1930438;73;21086;-87
2022/11/29 07:18:52;;;;;;;0.40;0.20;;;6.60;99.90;;;;;;1947117;72;22139;-88
2022/11/29 07:24:43;;;;;;;0.45;0.10;;;6.50;99.90;;;;;;1943978;72;22237;-89
2022/11/29 07:30:29;;;;;;;0.10;0.10;;;6.50;99.90;;;;;;1944726;72;22281;-88
2022/11/29 07:33:23;;;;;;;0.10;0.10;;;6.40;99.90;;;;;;1916728;73;21184;-87
2022/11/29 07:39:02;;;;;;;0.10;0.10;;;6.50;99.90;;;;;;1959930;72;22280;-89
2022/11/29 07:44:42;;;;;;;0.30;0.10;;;6.50;99.90;;;;;;1945977;72;22138;-88
2022/11/29 07:50:20;;;;;;;0.10;0.10;;;6.50;99.90;;;;;;1949853;72;22143;-88
2022/11/29 07:53:17;;;;;;;0.10;0.10;;;6.50;99.90;;;;;;1872880;75;21107;-88
2022/11/29 07:58:48;;;;;;;0.70;0.40;;;6.40;99.90;;;;;;1945245;72;22173;-88
2022/11/29 08:01:40;;;;;;;0.10;0.10;;;6.40;99.90;;;;;;1891418;75;21344;-87
2022/11/29 08:04:31;;;;;;;0.40;0.28;;;6.40;99.90;;;;;;1904360;75;21143;-87
2022/11/29 08:10:09;;;;;;;0.20;0.20;;;6.40;99.90;;;;;;1947352;72;22197;-88
2022/11/29 08:13:01;;;;;;;0.30;0.20;;;6.40;99.90;;;;;;1916784;73;21098;-88
2022/11/29 08:18:37;;;;;;;0.10;0.10;;;6.40;99.90;;;;;;1931034;72;22249;-89
2022/11/29 08:21:29;;;;;;;0.28;0.10;;;6.40;99.90;;;;;;1889933;74;21099;-87
2022/11/29 08:24:21;;;;;;;0.25;0.20;;;6.40;99.90;;;;;;1883722;75;21141;-88
2022/11/29 08:27:16;;;;;;;0.30;0.20;;;6.40;99.90;;;;;;1875820;75;21329;-88
2022/11/29 08:30:09;;;;;;;0.03;0.03;;;6.40;99.90;;;;;;1894488;75;21130;-87
2022/11/29 08:33:01;;;;;;;0.20;0.13;;;6.40;99.90;;;;;;1883561;75;21111;-88
2022/11/29 08:35:52;;;;;;;0.82;0.20;;;6.50;99.90;;;;;;1885518;75;21208;-88
2022/11/29 08:41:24;;;;;;;0.37;0.10;;;6.60;99.90;;;;;;1942970;72;22786;-89
2022/11/29 08:44:17;;;;;;;0.20;0.20;;;6.70;99.90;;;;;;1904844;75;21127;-88
2022/11/29 08:58:48;;;;;;;0.60;0.20;;;6.70;99.90;;;;;;1954848;72;22265;-88
2022/11/29 09:01:42;;;;;;;0.47;0.20;;;6.70;99.90;;;;;;1897802;75;21225;-88
2022/11/29 09:04:35;;;;;;;0.50;0.28;;;6.80;99.90;;;;;;1916412;75;21149;-88
2022/11/29 09:10:07;;;;;;;0.45;0.10;;;6.80;99.90;;;;;;1933879;72;22483;-87
2022/11/29 09:12:59;;;;;;;0.57;0.10;;;6.80;99.90;;;;;;1912207;75;21103;-88
2022/11/29 09:18:44;;;;;;;0.10;0.10;;;6.80;99.90;;;;;;1946043;72;22303;-88
2022/11/29 09:21:39;;;;;;;0.20;0.20;;;6.80;99.90;;;;;;1928293;73;21074;-88
2022/11/29 09:24:34;;;;;;;0.17;0.17;;;6.80;99.90;;;;;;1916815;75;21097;-88
2022/11/29 09:27:26;;;;;;;0.20;0.20;;;6.80;99.90;;;;;;1940460;73;21131;-89
2022/11/29 09:30:21;;;;;;;0.98;0.15;;;6.80;99.90;;;;;;1934871;73;21134;-88
2022/11/29 09:33:34;;;;;;;0.20;0.15;;;6.80;99.90;;;;;;1927245;73;21178;-87
2022/11/29 09:39:08;;;;;;;0.20;0.20;;;6.80;99.90;;;;;;1930661;72;22161;-87
2022/11/29 09:44:58;;;;;;;0.50;0.33;;;6.80;99.90;;;;;;1944316;72;22207;-89
2022/11/29 09:54:06;;;;;;;1.42;0.50;;;6.80;99.90;;;;;;1940687;72;22261;-88
2022/11/29 09:57:02;;;;;;;0.20;0.20;;;6.90;99.90;;;;;;1917358;75;21172;-87
2022/11/29 09:59:59;;;;;;;0.30;0.10;;;6.90;99.90;;;;;;1897902;75;21168;-88
2022/11/29 10:02:54;;;;;;;0.45;0.40;;;6.90;99.90;;;;;;1909669;75;21159;-87
2022/11/29 10:08:28;;;;;;;0.78;0.20;;;7.00;99.90;;;;;;1944185;72;22306;-88
2022/11/29 10:14:09;;;;;;;0.20;0.20;;;7.00;99.90;;;;;;1948304;72;22178;-88
2022/11/29 10:17:04;;;;;;;0.30;0.28;;;7.10;99.90;;;;;;1911702;74;21091;-88
2022/11/29 10:22:48;;;;;;;0.50;0.28;;;7.10;99.90;;;;;;1939924;72;22205;-86
2022/11/29 10:28:23;;;;;;;0.47;0.40;;;7.20;99.90;;;;;;1920025;72;22301;-88
2022/11/29 10:34:09;;;;;;;0.37;0.20;;;7.20;99.90;;;;;;1934792;72;23713;-88
2022/11/29 10:39:43;;;;;;;0.20;0.20;;;7.20;99.90;;;;;;1944876;72;22331;-88
2022/11/29 10:42:52;;;;;;;0.35;0.20;;;7.20;99.90;;;;;;1882625;75;21513;-87
2022/11/29 10:48:32;;;;;;;0.20;0.20;;;7.20;99.90;;;;;;1946633;72;22213;-87
2022/11/29 10:51:24;;;;;;;1.60;0.20;;;7.30;99.90;;;;;;1874137;75;21106;-87
2022/11/29 10:54:30;;;;;;;0.78;0.30;;;7.30;99.90;;;;;;1872334;75;21191;-87
2022/11/29 10:57:23;;;;;;;0.20;0.20;;;7.40;99.90;;;;;;1892571;75;21082;-89
2022/11/29 11:00:16;;;;;;;0.20;0.20;;;7.40;99.90;;;;;;1872148;75;21196;-88
2022/11/29 11:03:18;;;;;;;0.20;0.20;;;7.40;99.90;;;;;;1891623;75;21059;-88
2022/11/29 11:08:59;;;;;;;0.33;0.30;;;7.30;99.90;;;;;;1934734;72;22263;-88
2022/11/29 11:11:56;;;;;;;0.50;0.20;;;7.40;99.90;;;;;;1892712;75;21111;-88
2022/11/29 11:14:50;;;;;;;0.20;0.20;;;7.40;99.90;;;;;;1888167;75;21128;-87
2022/11/29 11:17:43;;;;;;;0.55;0.40;;;7.30;99.90;;;;;;1897039;75;21161;-87
2022/11/29 11:20:37;;;;;;;0.30;0.20;;;7.30;99.90;;;;;;1896710;75;21135;-88
2022/11/29 11:23:31;;;;;;;0.33;0.20;;;7.40;99.90;;;;;;1892318;75;21048;-88
2022/11/29 11:29:04;;;;;;;1.60;0.60;;;7.50;99.90;;;;;;1940044;72;22186;-88
2022/11/29 11:31:57;;;;;;;0.28;0.28;;;7.60;99.90;;;;;;1904988;75;21102;-88
2022/11/29 11:34:53;;;;;;;3.67;3.20;;;7.70;99.90;;;;;;1886843;75;21152;-89
2022/11/29 11:40:30;;;;;;;0.68;0.50;;;7.70;99.90;;;;;;1933683;72;22145;-88
2022/11/29 11:46:11;;;;;;;5.60;3.95;;;7.80;99.90;;;;;;1949504;72;22221;-88
2022/11/29 11:49:05;;;;;;;0.93;0.80;;;7.90;99.90;;;;;;1927694;73;21139;-87
2022/11/29 11:51:57;;;;;;;3.83;3.12;;;8.00;99.90;;;;;;1917371;73;21232;-90
2022/11/29 11:54:52;;;;;;;6.60;3.70;;;8.00;99.90;;;;;;1940671;73;21157;-89
2022/11/29 11:57:43;;;;;;;2.70;2.30;;;8.10;99.90;;;;;;1916595;75;21086;-88
2022/11/29 12:03:54;;;;;;;0.53;0.50;;;7.90;99.90;;;;;;1924997;72;22225;-89
2022/11/29 12:09:38;;;;;;;1.87;0.80;;;7.70;99.90;;;;;;1955330;72;22297;-87
2022/11/29 12:12:34;;;;;;;1.50;0.50;;;7.70;99.90;;;;;;1917274;75;21154;-87
2022/11/29 12:15:28;;;;;;;2.80;1.77;;;7.70;99.90;;;;;;1917184;75;21671;-87
2022/11/29 12:18:25;;;;;;;3.25;2.70;;;7.90;99.90;;;;;;1918411;73;21146;-88
2022/11/29 12:21:19;;;;;;;3.37;2.40;;;8.10;99.90;;;;;;1918574;73;21058;-87
2022/11/29 12:24:16;;;;;;;3.83;3.25;;;8.20;99.90;;;;;;1920376;73;21220;-87
2022/11/29 12:27:14;;;;;;;4.03;3.30;;;8.20;99.90;;;;;;1931349;73;21085;-88
2022/11/29 12:30:14;;;;;;;5.58;4.00;;;8.30;99.90;;;;;;1923300;73;21146;-87
2022/11/29 12:33:14;;;;;;;5.40;3.50;;;8.50;99.90;;;;;;1916545;73;21179;-87
2022/11/29 12:39:23;;;;;;;4.40;3.30;;;8.40;99.90;;;;;;1911064;72;28234;-88
2022/11/29 12:42:19;;;;;;;6.60;3.45;;;8.60;99.90;;;;;;1906897;75;21154;-88
2022/11/29 12:45:27;;;;;;;1.75;1.50;;;8.60;99.90;;;;;;1888046;75;21548;-88
2022/11/29 12:48:21;;;;;;;;;;;8.60;99.90;;;;;;1907655;75;21113;-88
2022/11/29 12:54:24;;;;;;;7.12;4.37;;;8.60;99.90;;;;;;1922633;72;28197;-88
2022/11/29 13:02:33;;;;;;;2.12;1.85;;;8.90;99.90;;;;;;2066890;68;22122;-88
2022/11/29 13:05:32;;;;;;;3.05;2.47;;;8.90;99.90;;;;;;2022117;70;21054;-88
2022/11/29 13:08:44;;;;;;;2.12;1.90;;;8.90;99.90;;;;;;2007902;70;21048;-87
2022/11/29 13:11:40;;;;;;;2.17;1.57;;;8.90;99.90;;;;;;2004466;70;21159;-86
2022/11/29 13:14:36;;;;;;;2.20;1.80;;;9.00;99.90;;;;;;2004359;70;21150;-88
2022/11/29 13:20:26;;;;;;;3.50;2.20;;;9.10;99.90;;;;;;1951309;72;22127;-89
2022/11/29 13:23:21;;;;;;;2.60;2.22;;;9.10;99.90;;;;;;1905211;75;21061;-87
2022/11/29 13:26:15;;;;;;;2.00;1.47;;;9.20;99.90;;;;;;1904637;75;21177;-87
2022/11/29 13:29:09;;;;;;;2.02;1.50;;;9.20;99.90;;;;;;1904361;75;21123;-87
2022/11/29 13:32:03;;;;;;;2.37;1.47;;;9.30;99.90;;;;;;1904542;75;21102;-87
2022/11/29 13:34:58;;;;;;;1.65;1.52;;;9.30;99.90;;;;;;1904519;75;21111;-89
2022/11/29 13:37:55;;;;;;;2.25;1.95;;;9.30;99.90;;;;;;1926781;74;21168;-87
2022/11/29 13:40:53;;;;;;;1.90;1.25;;;9.30;99.90;;;;;;1922401;74;21546;-88
2022/11/29 13:43:47;;;;;;;3.27;1.67;;;9.10;99.90;;;;;;1919139;74;21078;-87
2022/11/29 13:46:51;;;;;;;3.20;1.20;;;9.10;99.90;;;;;;1906735;74;21571;-87
2022/11/29 13:49:55;;;;;;;0.98;0.80;;;9.00;99.90;;;;;;1911672;74;21119;-87
2022/11/29 13:52:48;;;;;;;1.15;0.90;;;8.90;99.90;;;;;;1911231;74;21164;-89
2022/11/29 13:55:46;;;;;;;1.98;1.05;;;9.00;99.90;;;;;;1905166;75;21182;-87
2022/11/29 13:58:39;;;;;;;0.40;0.20;;;9.00;99.90;;;;;;1923095;74;21157;-87
2022/11/29 14:01:33;;;;;;;0.90;0.60;;;8.80;99.90;;;;;;1924983;74;21152;-88
2022/11/29 14:04:32;;;;;;;0.82;0.50;;;8.60;99.90;;;;;;1927079;74;21193;-88
2022/11/29 14:07:24;;;;;;;1.52;0.60;;;8.70;99.90;;;;;;1927008;74;21175;-87
2022/11/29 14:10:21;;;;;;;0.80;0.60;;;8.70;99.90;;;;;;1904416;75;21144;-88
2022/11/29 14:13:16;;;;;;;1.30;0.80;;;8.80;99.90;;;;;;1923135;74;21107;-89
2022/11/29 14:16:15;;;;;;;0.85;0.80;;;8.70;99.90;;;;;;1904866;75;21119;-88
2022/11/29 14:19:27;;;;;;;0.53;0.30;;;8.70;99.90;;;;;;1904507;74;21168;-88
2022/11/29 14:22:22;;;;;;;1.50;0.40;;;8.60;99.90;;;;;;1896003;75;21172;-88
2022/11/29 14:25:25;;;;;;;1.17;0.40;;;8.60;99.90;;;;;;1903463;75;21662;-88
2022/11/29 14:28:36;;;;;;;0.65;0.42;;;8.30;99.90;;;;;;1900681;74;21166;-87
2022/11/29 14:31:56;;;;;;;0.62;0.40;;;8.20;99.90;;;;;;1900187;74;21151;-86
2022/11/29 14:35:02;;;;;;;1.17;0.40;;;8.20;99.90;;;;;;1900413;74;21164;-87
2022/11/29 14:38:01;;;;;;;0.80;0.50;;;8.20;99.90;;;;;;1896128;75;21252;-87
2022/11/29 14:40:56;;;;;;;0.45;0.40;;;8.10;99.90;;;;;;1901142;75;21202;-89
2022/11/29 14:43:48;;;;;;;0.75;0.45;;;7.90;99.90;;;;;;1901434;75;21173;-87
2022/11/29 14:46:41;;;;;;;0.55;0.45;;;8.00;99.90;;;;;;1898255;75;21090;-87
2022/11/29 14:49:40;;;;;;;0.30;0.30;;;8.00;99.90;;;;;;1895164;75;21220;-88
2022/11/29 14:52:35;;;;;;;1.00;0.40;;;7.90;99.90;;;;;;1899504;75;21131;-89
2022/11/29 14:55:37;;;;;;;0.50;0.40;;;7.80;99.90;;;;;;1908932;74;21098;-89
2022/11/29 14:58:29;;;;;;;0.78;0.55;;;7.90;99.90;;;;;;1919651;74;21122;-88
2022/11/29 15:01:22;;;;;;;1.10;0.68;;;8.00;99.90;;;;;;1889714;75;21100;-88
2022/11/29 15:04:17;;;;;;;1.45;0.60;;;8.00;99.90;;;;;;1896262;75;21058;-88
2022/11/29 15:09:53;;;;;;;0.40;0.35;;;7.90;99.90;;;;;;1957570;72;22199;-88
2022/11/29 15:12:46;;;;;;;0.82;0.50;;;7.90;99.90;;;;;;1916155;75;21129;-87
2022/11/29 15:15:47;;;;;;;0.93;0.60;;;7.90;99.90;;;;;;1916686;75;21078;-88
2022/11/29 15:18:58;;;;;;;0.88;0.40;;;7.80;99.90;;;;;;1916462;75;21107;-87
2022/11/29 15:21:55;;;;;;;1.02;0.50;;;7.80;99.90;;;;;;1915987;75;21114;-87
2022/11/29 15:24:54;;;;;;;0.40;0.40;;;7.80;99.90;;;;;;1938449;73;21554;-87
2022/11/29 15:27:54;;;;;;;0.62;0.40;;;7.80;99.90;;;;;;1916887;75;21131;-87
2022/11/29 15:30:52;;;;;;;0.90;0.65;;;7.70;99.90;;;;;;1916884;75;21146;-87
2022/11/29 15:33:46;;;;;;;1.10;0.50;;;7.80;99.90;;;;;;1916620;75;21148;-89
2022/11/29 15:36:40;;;;;;;1.00;0.60;;;7.70;99.90;;;;;;1916767;75;21102;-89
2022/11/29 15:39:34;;;;;;;0.70;0.37;;;7.70;99.90;;;;;;1916926;75;21176;-89
2022/11/29 15:42:26;;;;;;;0.82;0.60;;;7.70;99.90;;;;;;1917045;75;21106;-87
2022/11/29 15:45:28;;;;;;;0.70;0.50;;;7.70;99.90;;;;;;1917252;75;21228;-88
2022/11/29 15:48:23;;;;;;;0.60;0.40;;;7.80;99.90;;;;;;1917279;75;21408;-87
2022/11/29 15:51:19;;;;;;;0.42;0.40;;;7.70;99.90;;;;;;1939433;73;21058;-87
2022/11/29 15:54:16;;;;;;;0.75;0.60;;;7.70;99.90;;;;;;1917032;75;21119;-89
2022/11/29 15:57:11;;;;;;;1.00;0.50;;;7.70;99.90;;;;;;1916494;75;21565;-87
2022/11/29 16:00:06;;;;;;;0.40;0.40;;;7.70;99.90;;;;;;1916573;75;21131;-87
2022/11/29 16:03:00;;;;;;;1.42;0.90;;;7.60;99.90;;;;;;1916713;75;21193;-89
2022/11/29 16:05:59;;;;;;;1.27;0.78;;;7.70;99.90;;;;;;1921977;73;21224;-88
2022/11/29 16:08:51;;;;;;;1.07;0.75;;;7.60;99.90;;;;;;1925105;73;21146;-88
2022/11/29 16:11:43;;;;;;;1.67;0.95;;;7.80;99.90;;;;;;1916478;74;21151;-87
2022/11/29 16:14:35;;;;;;;1.20;0.80;;;7.80;99.90;;;;;;1902622;75;21090;-88
2022/11/29 16:17:29;;;;;;;0.80;0.70;;;7.90;99.90;;;;;;1918296;74;21105;-87
2022/11/29 16:20:27;;;;;;;0.80;0.65;;;7.80;99.90;;;;;;1918240;74;21111;-88
2022/11/29 16:23:21;;;;;;;1.05;0.80;;;7.80;99.90;;;;;;1924254;74;21149;-88
2022/11/29 16:26:15;;;;;;;3.12;0.95;;;7.70;99.90;;;;;;1914787;74;21117;-87
2022/11/29 16:29:09;;;;;;;1.62;1.10;;;7.70;99.90;;;;;;1914513;74;21566;-87
2022/11/29 16:32:14;;;;;;;1.27;0.70;;;7.70;99.90;;;;;;1910208;74;21090;-88
2022/11/29 16:35:13;;;;;;;0.95;0.70;;;7.70;99.90;;;;;;1911479;74;21144;-87
2022/11/29 16:38:06;;;;;;;0.82;0.60;;;7.70;99.90;;;;;;1910519;74;21070;-86
2022/11/29 16:41:06;;;;;;;0.60;0.55;;;7.70;99.90;;;;;;1921294;74;21287;-89
2022/11/29 16:43:58;;;;;;;3.25;1.20;;;7.60;99.90;;;;;;1919837;74;21097;-88
2022/11/29 16:46:50;;;;;;;1.50;0.98;;;7.60;99.90;;;;;;1909357;74;21051;-87
2022/11/29 16:49:41;;;;;;;1.22;0.70;;;7.70;99.90;;;;;;1911177;74;21142;-88
2022/11/29 16:52:37;;;;;;;1.17;1.00;;;7.70;99.90;;;;;;1913070;74;21179;-88
2022/11/29 16:55:28;;;;;;;1.20;0.70;;;7.60;99.90;;;;;;1912643;74;21065;-88
2022/11/29 16:58:20;;;;;;;0.70;0.60;;;7.80;99.90;;;;;;1901636;75;21074;-88
2022/11/29 17:01:19;;;;;;;0.78;0.60;;;7.80;99.90;;;;;;1917991;74;21188;-87
2022/11/29 17:04:10;;;;;;;1.45;0.95;;;7.70;99.90;;;;;;1921051;74;21574;-88
2022/11/29 17:07:05;;;;;;;1.62;1.10;;;7.90;99.90;;;;;;1910024;74;21225;-88
2022/11/29 17:09:58;;;;;;;1.37;0.80;;;7.90;99.90;;;;;;1905908;75;21183;-88
2022/11/29 17:12:50;;;;;;;1.67;0.65;;;7.80;99.90;;;;;;1895724;75;21095;-88
2022/11/29 17:15:42;;;;;;;1.47;1.12;;;7.70;99.90;;;;;;1894498;75;21095;-88
2022/11/29 17:18:35;;;;;;;5.25;2.42;;;7.60;99.90;;;;;;1896570;75;21076;-87
2022/11/29 17:21:30;;;;;;;2.30;2.10;;;7.60;99.90;;;;;;1916783;75;21087;-88
2022/11/29 17:24:25;;;;;;;1.50;1.00;;;7.70;99.90;;;;;;1902275;75;21561;-88
2022/11/29 17:27:17;;;;;;;2.80;1.52;;;7.80;99.90;;;;;;1905612;75;21143;-87
2022/11/29 17:30:11;;;;;;;1.82;1.60;;;7.80;99.90;;;;;;1905192;75;21163;-88
2022/11/29 17:33:03;;;;;;;1.85;1.00;;;7.80;99.90;;;;;;1883859;75;21178;-87
2022/11/29 17:35:55;;;;;;;2.10;1.60;;;7.80;99.90;;;;;;1884178;76;21066;-90
2022/11/29 17:38:47;;;;;;;3.22;2.10;;;7.90;99.90;;;;;;1883599;76;21192;-88
2022/11/29 17:41:41;;;;;;;4.28;2.98;;;7.90;99.90;;;;;;1905344;75;21195;-87
2022/11/29 17:44:33;;;;;;;3.95;3.30;;;7.90;99.90;;;;;;1885733;75;21632;-88
2022/11/29 17:47:25;;;;;;;4.75;3.55;;;8.00;99.90;;;;;;1898423;75;21070;-87
2022/11/29 17:50:17;;;;;;;4.78;3.75;;;8.00;99.90;;;;;;1897305;75;21103;-87
2022/11/29 17:53:08;;;;;;;4.10;3.50;;;8.00;99.90;;;;;;1894610;75;21111;-88
2022/11/29 17:56:06;;;;;;;4.47;3.40;;;8.00;99.90;;;;;;1891865;75;21551;-87
2022/11/29 17:58:58;;;;;;;4.62;3.30;;;8.10;99.90;;;;;;1904497;75;21139;-88
2022/11/29 18:01:50;;;;;;;3.98;3.20;;;8.10;99.90;;;;;;1883711;76;21051;-87
2022/11/29 18:04:43;;;;;;;3.40;2.90;;;8.10;99.90;;;;;;1894891;75;21082;-87
2022/11/29 18:07:56;;;;;;;3.22;2.62;;;8.10;99.90;;;;;;1908776;75;21121;-87
2022/11/29 18:10:28;;;;;;;2.67;2.42;;;8.20;99.90;;;;;;1886158;75;21231;-87
2022/11/29 18:13:20;;;;;;;3.05;2.60;;;8.20;99.90;;;;;;1936314;73;21110;-87
2022/11/29 18:16:19;;;;;;;5.05;3.33;;;8.20;99.90;;;;;;1916877;74;21108;-87
2022/11/29 18:19:13;;;;;;;6.62;3.67;;;8.20;99.90;;;;;;1917012;74;21109;-87
2022/11/29 18:22:05;;;;;;;2.67;2.45;;;8.10;99.90;;;;;;1918887;74;21106;-88
2022/11/29 18:25:00;;;;;;;3.90;2.83;;;8.10;99.90;;;;;;1920498;74;21114;-88
2022/11/29 18:27:55;;;;;;;3.15;2.58;;;8.00;99.90;;;;;;1935463;73;21138;-87
2022/11/29 18:30:47;;;;;;;3.55;3.00;;;8.00;99.90;;;;;;1937520;73;21174;-87
2022/11/29 18:33:40;;;;;;;5.20;4.15;;;8.00;99.90;;;;;;1925373;73;21109;-86
2022/11/29 18:36:37;;;;;;;4.17;3.00;;;8.00;99.90;;;;;;1924821;73;21152;-88
2022/11/29 18:42:11;;;;;;;4.62;3.70;;;8.00;99.90;;;;;;1942711;72;22271;-88
2022/11/29 18:45:03;;;;;;;4.67;3.37;;;8.00;99.90;;;;;;1894307;75;21119;-86
2022/11/29 18:47:55;;;;;;;9.10;7.17;;;8.00;99.90;;;;;;1872704;76;21147;-89
2022/11/29 18:50:47;;;;;;;5.90;4.25;;;8.00;99.90;;;;;;1893508;75;21338;-87